Time;durP1;ratioP1;P1;durP2;ratioP2;P2;SDS_P1;SDS_P2;PMS_P1;PMS_P2;Temp;Humidity;BMP_temperature;BMP_pressure;BME280_temperature;BME280_humidity;BME280_pressure;Samples;Min_cycle;Max_cycle;Signal;HPM_P1;HPM_P2
2023/02/08 00:01:23;;;;;;;11.00;4.80;;;;;;;-5.40;57.86;103134.16;105253;1256;61304;-50
2023/02/08 00:03:51;;;;;;;13.40;4.90;;;;;;;-5.31;57.59;103135.45;105053;1261;73936;-49
2023/02/08 00:06:20;;;;;;;14.50;4.60;;;;;;;-5.24;57.35;103137.55;105338;1260;71000;-49
2023/02/08 00:08:48;;;;;;;10.40;4.30;;;;;;;-5.18;57.35;103142.35;105061;1258;73320;-50
2023/02/08 00:11:17;;;;;;;12.10;3.80;;;;;;;-5.12;57.26;103143.37;107052;1257;62187;-50
2023/02/08 00:13:45;;;;;;;12.00;4.80;;;;;;;-5.07;57.04;103146.78;105176;1258;61105;-49
2023/02/08 00:16:14;;;;;;;12.20;5.40;;;;;;;-5.03;57.05;103147.08;105771;1260;73195;-50
2023/02/08 00:18:42;;;;;;;12.30;4.70;;;;;;;-4.98;56.96;103142.24;105419;1258;71278;-50
2023/02/08 00:21:12;;;;;;;11.70;3.70;;;;;;;-4.98;57.00;103140.04;105254;1260;73764;-50
2023/02/08 00:23:42;;;;;;;13.80;4.70;;;;;;;-5.00;56.81;103141.49;105190;1261;59853;-50
2023/02/08 00:26:10;;;;;;;16.50;6.20;;;;;;;-5.07;56.67;103142.33;105222;1260;60401;-49
2023/02/08 00:28:39;;;;;;;14.00;6.60;;;;;;;-5.13;56.74;103140.46;107888;1257;73878;-50
2023/02/08 00:31:07;;;;;;;16.50;5.60;;;;;;;-5.20;56.70;103136.30;105340;1260;71557;-50
2023/02/08 00:33:36;;;;;;;11.30;4.20;;;;;;;-5.30;56.74;103139.11;105204;1260;72461;-50
2023/02/08 00:36:07;;;;;;;12.90;7.10;;;;;;;-5.42;56.88;103144.05;105671;1262;60391;-49
2023/02/08 00:38:35;;;;;;;13.10;5.80;;;;;;;-5.52;57.11;103143.54;105253;1256;60272;-52
2023/02/08 00:41:04;;;;;;;12.60;4.70;;;;;;;-5.64;57.16;103150.38;105355;1260;73675;-49
2023/02/08 00:43:32;;;;;;;13.30;5.40;;;;;;;-5.75;57.37;103159.59;105331;1258;71187;-50
2023/02/08 00:46:01;;;;;;;16.10;7.10;;;;;;;-5.86;57.70;103161.13;105295;1260;73619;-50
2023/02/08 00:48:30;;;;;;;12.60;5.90;;;;;;;-5.97;58.01;103160.11;105306;1260;61521;-50
2023/02/08 00:51:04;;;;;;;14.00;7.10;;;;;;;-6.05;58.22;103166.34;105288;1261;60381;-48
2023/02/08 00:53:37;;;;;;;12.10;3.40;;;;;;;-6.05;58.27;103167.02;105420;1257;73993;-49
2023/02/08 00:56:06;;;;;;;12.20;5.40;;;;;;;-6.01;58.23;103169.91;105907;1258;71558;-49
2023/02/08 00:58:36;;;;;;;13.10;5.30;;;;;;;-5.95;58.25;103170.76;105113;1261;73458;-52
2023/02/08 01:01:05;;;;;;;11.80;4.60;;;;;;;-5.87;58.21;103172.89;105348;1260;60372;-53
2023/02/08 01:03:34;;;;;;;13.40;5.10;;;;;;;-5.78;58.12;103169.58;105093;1256;60537;-50
2023/02/08 01:06:15;;;;;;;15.00;5.10;;;;;;;-5.70;57.87;103175.48;105126;1260;76138;-50
2023/02/08 01:08:45;;;;;;;19.00;5.40;;;;;;;-5.63;57.73;103179.65;105158;1260;71078;-50
2023/02/08 01:11:24;;;;;;;9.20;3.70;;;;;;;-5.56;57.51;103180.55;105261;1257;73564;-50
2023/02/08 01:13:56;;;;;;;15.10;4.40;;;;;;;-5.49;57.45;103183.84;105140;1257;61310;-50
2023/02/08 01:16:26;;;;;;;9.40;4.50;;;;;;;-5.45;57.17;103190.11;105423;1260;60368;-50
2023/02/08 01:18:56;;;;;;;16.10;6.00;;;;;;;-5.43;57.30;103188.00;105440;1260;72877;-50
2023/02/08 01:21:26;;;;;;;14.00;6.20;;;;;;;-5.40;57.14;103187.39;105781;1256;69405;-51
2023/02/08 01:23:54;;;;;;;17.60;5.40;;;;;;;-5.39;57.01;103193.39;106167;1257;73678;-51
2023/02/08 01:26:23;;;;;;;12.80;5.90;;;;;;;-5.40;56.93;103197.31;105347;1260;59667;-50
2023/02/08 01:28:52;;;;;;;10.50;3.80;;;;;;;-5.48;57.08;103202.54;106203;1257;60901;-50
2023/02/08 01:31:27;;;;;;;14.70;5.20;;;;;;;-5.58;57.30;103206.30;105787;1260;74107;-50
2023/02/08 01:33:56;;;;;;;16.20;7.00;;;;;;;-5.71;57.45;103206.74;106030;1257;71259;-50
2023/02/08 01:36:25;;;;;;;12.60;5.30;;;;;;;-5.82;57.59;103207.06;105802;1257;71823;-50
2023/02/08 01:38:54;;;;;;;17.00;7.50;;;;;;;-5.94;57.89;103212.50;105390;1257;61342;-50
2023/02/08 01:41:27;;;;;;;13.50;5.50;;;;;;;-6.06;58.13;103219.14;105254;1260;61170;-50
2023/02/08 01:43:56;;;;;;;15.40;7.10;;;;;;;-6.18;58.41;103224.00;105521;1256;73826;-50
2023/02/08 01:46:24;;;;;;;16.20;8.50;;;;;;;-6.30;58.62;103226.14;105229;1257;69578;-50
2023/02/08 01:48:54;;;;;;;26.10;7.70;;;;;;;-6.42;59.00;103223.48;105312;1256;73720;-50
2023/02/08 01:51:25;;;;;;;12.40;5.20;;;;;;;-6.53;59.27;103230.10;105217;1260;63228;-50
2023/02/08 01:53:54;;;;;;;12.70;6.00;;;;;;;-6.56;59.37;103240.94;105210;1257;60952;-50
2023/02/08 01:56:32;;;;;;;16.30;6.20;;;;;;;-6.54;59.53;103244.59;105280;1257;74783;-51
2023/02/08 01:59:02;;;;;;;13.10;5.80;;;;;;;-6.51;59.58;103248.11;105622;1257;70410;-48
2023/02/08 02:01:30;;;;;;;15.10;4.90;;;;;;;-6.47;59.67;103245.19;105241;1256;72266;-49
2023/02/08 02:04:01;;;;;;;12.70;5.50;;;;;;;-6.39;59.48;103248.70;105076;1262;61893;-49
2023/02/08 02:06:33;;;;;;;12.70;4.70;;;;;;;-6.34;59.49;103251.27;105489;1257;61256;-49
2023/02/08 02:09:05;;;;;;;11.60;3.10;;;;;;;-6.30;59.27;103249.04;105264;1257;74592;-49
2023/02/08 02:11:33;;;;;;;12.00;4.90;;;;;;;-6.27;59.16;103255.80;105235;1260;71209;-49
2023/02/08 02:14:02;;;;;;;10.40;4.30;;;;;;;-6.21;59.07;103263.21;105206;1260;73417;-49
2023/02/08 02:16:30;;;;;;;14.70;6.60;;;;;;;-6.17;58.87;103264.70;105255;1258;62084;-49
2023/02/08 02:18:59;;;;;;;17.90;5.10;;;;;;;-6.17;58.83;103270.36;105240;1257;61148;-49
2023/02/08 02:21:37;;;;;;;13.80;6.20;;;;;;;-6.16;58.81;103270.73;105344;1260;74817;-48
2023/02/08 02:24:31;;;;;;;13.80;5.30;;;;;;;-6.16;58.71;103275.52;105425;1257;71042;-49
2023/02/08 02:27:02;;;;;;;15.30;7.10;;;;;;;-6.13;58.73;103281.06;105388;1257;73753;-49
2023/02/08 02:29:35;;;;;;;17.20;7.00;;;;;;;-6.12;58.65;103283.17;105058;1257;62193;-50
2023/02/08 02:32:31;;;;;;;9.90;4.60;;;;;;;-6.11;58.58;103281.99;105771;1262;61371;-51
2023/02/08 02:35:11;;;;;;;7.10;3.00;;;;;;;-6.08;58.56;103288.63;105054;1256;74608;-52
2023/02/08 02:38:13;;;;;;;14.80;5.10;;;;;;;-6.10;58.46;103297.58;105427;1260;71573;-50
2023/02/08 02:41:05;;;;;;;12.50;5.10;;;;;;;-6.13;58.43;103301.90;105452;1260;72745;-51
2023/02/08 02:43:47;;;;;;;15.00;4.70;;;;;;;-6.14;58.34;103297.96;108893;1257;62245;-51
2023/02/08 02:46:36;;;;;;;12.40;5.60;;;;;;;-6.17;58.34;103302.63;106101;1261;61568;-51
2023/02/08 02:49:24;;;;;;;11.70;4.90;;;;;;;-6.16;58.47;103301.33;105151;1257;74949;-50
2023/02/08 02:52:15;;;;;;;13.40;5.40;;;;;;;-6.11;58.32;103299.60;105642;1259;71450;-50
2023/02/08 02:54:51;;;;;;;13.20;4.00;;;;;;;-6.09;58.34;103300.71;105268;1260;73756;-50
2023/02/08 02:57:24;;;;;;;16.10;6.20;;;;;;;-6.09;58.24;103296.41;105440;1258;61898;-50
2023/02/08 02:59:53;;;;;;;15.70;5.30;;;;;;;-6.10;58.25;103297.59;105177;1263;61001;-50
2023/02/08 03:02:21;;;;;;;13.20;3.40;;;;;;;-6.08;58.28;103298.52;105151;1257;74119;-50
2023/02/08 03:04:52;;;;;;;10.40;3.10;;;;;;;-6.05;58.09;103304.29;105250;1257;71258;-50
2023/02/08 03:07:53;;;;;;;10.70;3.80;;;;;;;-6.06;58.20;103304.75;105364;1260;72525;-51
2023/02/08 03:10:47;;;;;;;9.60;4.00;;;;;;;-6.05;58.12;103311.98;104972;1257;61926;-51
2023/02/08 03:14:01;;;;;;;7.60;2.60;;;;;;;-6.03;58.13;103312.56;105268;1258;60446;-51
2023/02/08 03:16:52;;;;;;;14.50;5.20;;;;;;;-6.07;58.08;103311.20;105204;1257;74982;-50
2023/02/08 03:19:42;;;;;;;10.50;4.50;;;;;;;-6.06;58.18;103310.20;105312;1256;71341;-50
2023/02/08 03:22:22;;;;;;;8.70;3.70;;;;;;;-6.04;58.08;103312.33;105115;1257;73858;-50
2023/02/08 03:24:54;;;;;;;9.10;3.60;;;;;;;-6.08;57.90;103306.90;105391;1263;63105;-50
2023/02/08 03:28:00;;;;;;;11.30;2.70;;;;;;;-6.12;57.91;103312.56;105198;1260;61527;-51
2023/02/08 03:30:30;;;;;;;9.30;3.30;;;;;;;-6.18;57.99;103313.20;105342;1257;74786;-50
2023/02/08 03:33:08;;;;;;;12.20;6.10;;;;;;;-6.22;58.13;103315.29;105120;1256;70190;-52
2023/02/08 03:36:02;;;;;;;9.50;2.90;;;;;;;-6.25;58.39;103316.89;105038;1257;73024;-51
2023/02/08 03:38:33;;;;;;;11.50;5.50;;;;;;;-6.26;58.32;103321.98;105640;1258;61852;-51
2023/02/08 03:41:03;;;;;;;17.10;5.90;;;;;;;-6.25;58.36;103326.95;105383;1257;60542;-51
2023/02/08 03:43:37;;;;;;;8.50;2.50;;;;;;;-6.23;58.30;103332.83;105343;1260;73665;-50
2023/02/08 03:46:10;;;;;;;15.50;5.90;;;;;;;-6.26;58.21;103340.79;105474;1262;71424;-51
2023/02/08 03:48:41;;;;;;;10.50;3.60;;;;;;;-6.30;58.14;103344.36;105161;1257;72322;-49
2023/02/08 03:51:09;;;;;;;27.70;6.10;;;;;;;-6.33;58.14;103346.83;105313;1262;60884;-50
2023/02/08 03:53:39;;;;;;;14.40;4.00;;;;;;;-6.35;58.24;103345.73;105610;1257;61458;-48
2023/02/08 03:56:14;;;;;;;15.30;4.60;;;;;;;-6.38;58.33;103347.65;105164;1262;74661;-48
2023/02/08 03:58:52;;;;;;;12.60;3.80;;;;;;;-6.38;58.51;103352.45;105234;1257;71194;-50
2023/02/08 04:01:28;;;;;;;11.60;3.60;;;;;;;-6.36;58.45;103354.21;105370;1256;73256;-49
2023/02/08 04:03:56;;;;;;;10.10;3.50;;;;;;;-6.41;58.41;103364.63;105237;1260;62521;-48
2023/02/08 04:06:24;;;;;;;10.80;4.50;;;;;;;-6.44;58.45;103374.76;107296;1257;61295;-49
2023/02/08 04:08:53;;;;;;;12.30;2.50;;;;;;;-6.46;58.42;103377.77;105207;1261;75049;-50
2023/02/08 04:11:21;;;;;;;10.90;4.00;;;;;;;-6.49;58.43;103376.95;105409;1260;70166;-49
2023/02/08 04:13:50;;;;;;;18.60;7.30;;;;;;;-6.53;58.51;103378.18;105164;1256;73872;-49
2023/02/08 04:16:18;;;;;;;16.60;7.40;;;;;;;-6.56;58.57;103380.80;105338;1260;61832;-49
2023/02/08 04:18:46;;;;;;;12.30;4.90;;;;;;;-6.57;58.59;103377.67;105221;1257;61069;-50
2023/02/08 04:21:15;;;;;;;16.60;6.00;;;;;;;-6.55;58.74;103382.19;105234;1260;74796;-50
2023/02/08 04:23:44;;;;;;;9.20;3.00;;;;;;;-6.52;58.71;103392.38;105315;1257;71216;-49
2023/02/08 04:26:12;;;;;;;14.50;5.50;;;;;;;-6.49;58.54;103385.14;105394;1257;73514;-50
2023/02/08 04:28:40;;;;;;;18.40;6.90;;;;;;;-6.37;58.22;103395.52;105325;1256;61996;-49
2023/02/08 04:31:09;;;;;;;16.10;7.60;;;;;;;-6.34;57.99;103405.23;105378;1257;60817;-49
2023/02/08 04:33:38;;;;;;;16.50;7.10;;;;;;;-6.35;58.03;103408.59;107844;1256;74773;-50
2023/02/08 04:36:06;;;;;;;19.20;7.80;;;;;;;-6.34;57.98;103406.91;105306;1257;72346;-48
2023/02/08 04:38:35;;;;;;;18.60;4.80;;;;;;;-6.38;57.76;103408.66;105185;1260;73712;-49
2023/02/08 04:41:03;;;;;;;12.20;5.80;;;;;;;-6.57;58.20;103409.42;105407;1257;61981;-50
2023/02/08 04:43:32;;;;;;;14.00;4.60;;;;;;;-6.70;58.46;103416.27;105398;1256;61744;-49
2023/02/08 04:46:00;;;;;;;11.20;4.10;;;;;;;-6.79;58.68;103423.26;105497;1256;74990;-51
2023/02/08 04:48:29;;;;;;;15.30;6.10;;;;;;;-6.86;58.88;103416.98;105348;1257;71094;-49
2023/02/08 04:50:57;;;;;;;13.30;6.10;;;;;;;-6.90;59.05;103423.33;106247;1260;73729;-50
2023/02/08 04:53:26;;;;;;;20.90;8.50;;;;;;;-6.91;59.02;103431.29;105461;1256;62169;-49
2023/02/08 04:55:54;;;;;;;18.90;7.60;;;;;;;-6.97;59.23;103429.85;105434;1260;61310;-49
2023/02/08 04:58:22;;;;;;;20.10;7.30;;;;;;;-7.03;59.54;103429.77;105306;1260;74980;-49
2023/02/08 05:00:51;;;;;;;17.10;8.70;;;;;;;-7.06;59.71;103433.56;105334;1257;70959;-49
2023/02/08 05:03:19;;;;;;;19.40;6.70;;;;;;;-7.07;59.74;103429.75;105290;1257;73455;-49
2023/02/08 05:05:56;;;;;;;23.60;8.00;;;;;;;-7.11;59.75;103426.70;105517;1257;62307;-50
2023/02/08 05:08:25;;;;;;;14.90;5.30;;;;;;;-7.10;59.97;103432.05;105281;1259;61095;-49
2023/02/08 05:10:54;;;;;;;20.70;6.70;;;;;;;-7.07;59.69;103434.36;105468;1259;74429;-50
2023/02/08 05:13:22;;;;;;;16.70;5.80;;;;;;;-7.10;59.93;103437.48;109022;1256;71048;-51
2023/02/08 05:15:50;;;;;;;16.40;6.70;;;;;;;-7.11;59.82;103445.14;109062;1256;73672;-51
2023/02/08 05:18:19;;;;;;;16.80;7.30;;;;;;;-7.09;59.67;103440.81;109036;1256;60935;-51
2023/02/08 05:20:57;;;;;;;17.40;6.80;;;;;;;-7.04;59.48;103446.45;107208;1256;60968;-49
2023/02/08 05:23:26;;;;;;;16.60;7.50;;;;;;;-7.07;59.31;103445.84;105364;1260;73723;-50
2023/02/08 05:25:54;;;;;;;23.10;8.70;;;;;;;-7.09;59.43;103449.32;105676;1257;71656;-50
2023/02/08 05:28:23;;;;;;;19.70;8.10;;;;;;;-7.09;59.42;103453.91;105182;1257;73526;-50
2023/02/08 05:30:51;;;;;;;17.40;6.10;;;;;;;-7.04;59.35;103451.41;105532;1256;61909;-49
2023/02/08 05:33:20;;;;;;;13.50;5.30;;;;;;;-6.96;58.99;103455.98;105295;1260;61238;-51
2023/02/08 05:35:48;;;;;;;17.50;7.90;;;;;;;-7.12;59.35;103454.81;105461;1257;73478;-50
2023/02/08 05:38:16;;;;;;;16.90;7.60;;;;;;;-7.15;59.56;103460.83;105346;1258;71525;-50
2023/02/08 05:40:45;;;;;;;26.90;10.50;;;;;;;-7.18;59.55;103465.30;105118;1256;73349;-50
2023/02/08 05:43:13;;;;;;;18.60;8.90;;;;;;;-7.23;59.56;103469.86;105347;1256;62148;-49
2023/02/08 05:45:42;;;;;;;13.00;4.10;;;;;;;-7.25;59.52;103475.42;105799;1258;61099;-50
2023/02/08 05:48:10;;;;;;;19.20;5.40;;;;;;;-7.25;59.61;103477.26;105209;1260;74702;-50
2023/02/08 05:50:39;;;;;;;13.70;5.70;;;;;;;-7.25;59.69;103473.17;105224;1258;71413;-50
2023/02/08 05:53:09;;;;;;;26.00;12.90;;;;;;;-7.21;59.74;103481.55;105037;1256;73647;-49
2023/02/08 05:55:38;;;;;;;14.90;6.50;;;;;;;-7.03;59.52;103487.10;106375;1256;62084;-50
2023/02/08 05:58:06;;;;;;;15.50;8.10;;;;;;;-6.97;59.22;103492.15;105005;1256;60594;-50
2023/02/08 06:00:36;;;;;;;17.50;9.10;;;;;;;-7.01;59.23;103498.63;107557;1257;74905;-50
2023/02/08 06:03:05;;;;;;;20.90;7.30;;;;;;;-7.17;59.55;103499.81;105185;1260;70278;-49
2023/02/08 06:05:33;;;;;;;15.40;7.00;;;;;;;-7.24;59.68;103498.14;105167;1260;74330;-49
2023/02/08 06:08:01;;;;;;;12.90;5.20;;;;;;;-7.27;59.69;103500.23;105056;1259;62667;-49
2023/02/08 06:10:30;;;;;;;13.00;4.70;;;;;;;-7.31;59.86;103502.11;105386;1257;60512;-50
2023/02/08 06:13:00;;;;;;;12.60;4.80;;;;;;;-7.31;60.01;103500.77;105109;1257;73615;-50
2023/02/08 06:15:29;;;;;;;24.30;8.60;;;;;;;-7.27;59.98;103504.82;105276;1260;71773;-50
2023/02/08 06:17:58;;;;;;;22.00;9.10;;;;;;;-7.22;59.95;103504.04;105288;1257;73882;-50
2023/02/08 06:20:26;;;;;;;15.60;7.10;;;;;;;-7.18;59.83;103500.44;105165;1256;66011;-50
2023/02/08 06:22:55;;;;;;;23.50;9.50;;;;;;;-7.17;59.80;103498.10;105435;1257;61513;-50
2023/02/08 06:25:23;;;;;;;20.00;7.00;;;;;;;-7.09;59.52;103502.55;105263;1256;74599;-50
2023/02/08 06:27:52;;;;;;;24.20;7.90;;;;;;;-7.02;59.44;103511.02;105202;1257;71289;-49
2023/02/08 06:30:21;;;;;;;43.20;13.70;;;;;;;-7.02;59.22;103516.52;105607;1257;73356;-50
2023/02/08 06:32:49;;;;;;;17.80;6.90;;;;;;;-7.04;59.24;103515.91;105352;1260;64553;-51
2023/02/08 06:35:18;;;;;;;16.40;7.70;;;;;;;-7.08;59.15;103515.23;105130;1263;61152;-50
2023/02/08 06:37:46;;;;;;;14.70;6.10;;;;;;;-7.11;59.26;103516.80;105263;1260;74986;-51
2023/02/08 06:40:15;;;;;;;16.30;6.70;;;;;;;-7.08;59.06;103522.89;105329;1256;71192;-51
2023/02/08 06:42:46;;;;;;;14.70;5.10;;;;;;;-7.07;59.25;103527.56;105978;1262;73632;-49
2023/02/08 06:45:14;;;;;;;17.20;6.40;;;;;;;-7.03;59.16;103526.52;105401;1260;61099;-50
2023/02/08 06:47:42;;;;;;;11.40;3.70;;;;;;;-7.00;59.18;103524.75;105284;1260;61142;-49
2023/02/08 06:50:11;;;;;;;13.40;5.70;;;;;;;-6.96;59.14;103522.91;106218;1256;74974;-51
2023/02/08 06:52:40;;;;;;;22.30;9.20;;;;;;;-6.93;59.11;103527.66;105384;1257;71268;-50
2023/02/08 06:55:08;;;;;;;12.00;3.80;;;;;;;-6.89;58.93;103524.73;105028;1257;73846;-50
2023/02/08 06:57:36;;;;;;;12.30;4.90;;;;;;;-6.86;58.84;103527.10;106161;1256;61981;-50
2023/02/08 07:00:06;;;;;;;9.90;4.40;;;;;;;-6.81;58.75;103528.80;105342;1260;61373;-51
2023/02/08 07:02:34;;;;;;;16.00;8.20;;;;;;;-6.76;58.61;103527.52;105633;1256;73912;-51
2023/02/08 07:05:03;;;;;;;14.30;6.60;;;;;;;-6.68;58.65;103531.09;105378;1257;71138;-52
2023/02/08 07:07:32;;;;;;;27.00;11.00;;;;;;;-6.58;58.57;103535.61;105633;1257;72622;-51
2023/02/08 07:10:01;;;;;;;16.60;8.30;;;;;;;-6.48;58.25;103531.56;105316;1256;62376;-52
2023/02/08 07:12:35;;;;;;;15.50;7.00;;;;;;;-6.42;57.97;103532.17;105332;1256;60464;-51
2023/02/08 07:15:04;;;;;;;16.40;8.20;;;;;;;-6.42;57.67;103538.83;105233;1257;74789;-51
2023/02/08 07:17:32;;;;;;;14.60;5.80;;;;;;;-6.47;57.63;103536.73;105265;1257;71039;-52
2023/02/08 07:20:01;;;;;;;22.30;9.70;;;;;;;-6.45;57.82;103539.02;105071;1256;73722;-51
2023/02/08 07:22:29;;;;;;;23.60;9.40;;;;;;;-6.41;57.82;103542.61;105306;1257;61988;-51
2023/02/08 07:24:58;;;;;;;16.80;8.40;;;;;;;-6.36;57.78;103543.87;105590;1254;61267;-51
2023/02/08 07:27:26;;;;;;;17.90;5.50;;;;;;;-6.30;57.65;103537.93;105507;1256;74851;-52
2023/02/08 07:29:55;;;;;;;25.80;12.00;;;;;;;-6.29;57.58;103540.19;105442;1254;71321;-52
2023/02/08 07:32:23;;;;;;;19.80;8.50;;;;;;;-6.28;57.67;103545.71;105511;1254;72955;-53
2023/02/08 07:34:52;;;;;;;12.20;4.90;;;;;;;-6.24;57.63;103545.04;105793;1254;62118;-54
2023/02/08 07:37:21;;;;;;;16.50;6.40;;;;;;;-6.18;57.75;103550.22;105418;1254;60553;-54
2023/02/08 07:39:49;;;;;;;19.20;9.90;;;;;;;-6.05;57.74;103548.34;109053;1252;74541;-52
2023/02/08 07:42:18;;;;;;;16.70;6.50;;;;;;;-5.88;57.50;103541.29;105746;1254;71252;-53
2023/02/08 07:44:53;;;;;;;11.30;4.80;;;;;;;-5.76;57.02;103544.29;105590;1254;73506;-53
2023/02/08 07:47:21;;;;;;;12.70;5.20;;;;;;;-5.67;57.02;103546.00;105557;1254;62505;-53
2023/02/08 07:49:49;;;;;;;13.00;5.00;;;;;;;-5.59;56.88;103545.30;105658;1254;61263;-53
2023/02/08 07:52:18;;;;;;;20.30;9.20;;;;;;;-5.49;56.72;103544.80;105763;1256;75039;-52
2023/02/08 07:54:46;;;;;;;14.00;5.50;;;;;;;-5.41;56.59;103543.90;105607;1256;71272;-53
2023/02/08 07:57:19;;;;;;;19.80;9.00;;;;;;;-5.37;56.50;103544.73;105687;1257;72634;-53
2023/02/08 07:59:48;;;;;;;17.40;6.90;;;;;;;-5.37;56.46;103541.11;105580;1254;60434;-53
2023/02/08 08:02:17;;;;;;;16.10;5.70;;;;;;;-5.43;56.29;103541.60;105537;1254;61194;-54
2023/02/08 08:04:46;;;;;;;23.10;7.80;;;;;;;-5.50;56.34;103541.86;105574;1253;73077;-53
2023/02/08 08:07:14;;;;;;;18.80;8.80;;;;;;;-5.57;56.46;103544.16;105694;1257;70353;-52
2023/02/08 08:09:43;;;;;;;20.90;9.20;;;;;;;-5.64;56.45;103547.67;105720;1257;73573;-52
2023/02/08 08:12:11;;;;;;;29.10;11.00;;;;;;;-5.73;56.67;103541.51;105637;1254;60558;-54
2023/02/08 08:14:40;;;;;;;19.00;8.70;;;;;;;-5.80;56.82;103543.11;105713;1253;61233;-52
2023/02/08 08:17:08;;;;;;;24.70;9.60;;;;;;;-5.84;56.87;103548.25;105647;1256;74797;-53
2023/02/08 08:19:38;;;;;;;20.10;7.00;;;;;;;-5.88;57.05;103555.65;105526;1254;71134;-53
2023/02/08 08:22:07;;;;;;;12.70;6.30;;;;;;;-5.90;57.13;103557.77;105661;1256;72700;-55
2023/02/08 08:24:36;;;;;;;19.80;9.00;;;;;;;-5.84;57.19;103558.88;105603;1256;61671;-53
2023/02/08 08:27:05;;;;;;;25.50;11.80;;;;;;;-5.71;57.27;103553.92;105631;1254;61332;-53
2023/02/08 08:29:36;;;;;;;15.90;7.30;;;;;;;-5.56;57.09;103556.89;105699;1256;74504;-53
2023/02/08 08:32:06;;;;;;;12.10;5.20;;;;;;;-5.41;57.05;103558.96;105576;1254;71248;-52
2023/02/08 08:34:34;;;;;;;13.70;4.10;;;;;;;-5.29;56.83;103559.25;105422;1253;73600;-53
2023/02/08 08:37:02;;;;;;;14.30;8.70;;;;;;;-5.15;56.75;103560.26;105418;1254;62351;-52
2023/02/08 08:39:31;;;;;;;18.70;8.40;;;;;;;-5.01;56.35;103564.00;105406;1254;61429;-53
2023/02/08 08:41:59;;;;;;;28.40;7.50;;;;;;;-4.86;56.19;103563.33;105508;1253;74993;-53
2023/02/08 08:44:27;;;;;;;24.50;11.20;;;;;;;-4.73;55.87;103563.46;105728;1254;71164;-53
2023/02/08 08:46:56;;;;;;;22.70;9.20;;;;;;;-4.62;55.68;103565.03;105890;1254;73628;-54
2023/02/08 08:49:25;;;;;;;16.20;6.70;;;;;;;-4.57;55.66;103566.55;105616;1254;60750;-52
2023/02/08 08:51:54;;;;;;;17.30;8.30;;;;;;;-4.53;55.58;103566.69;105595;1253;60533;-53
2023/02/08 08:54:22;;;;;;;18.70;8.50;;;;;;;-4.53;55.12;103566.36;105760;1253;73354;-53
2023/02/08 08:56:51;;;;;;;20.50;7.90;;;;;;;-4.55;54.99;103568.37;105532;1256;70022;-53
2023/02/08 08:59:19;;;;;;;15.40;7.70;;;;;;;-4.60;54.99;103565.77;105679;1256;73282;-53
2023/02/08 09:01:48;;;;;;;15.20;6.70;;;;;;;-4.64;55.07;103564.43;105937;1254;60564;-54
2023/02/08 09:04:16;;;;;;;21.70;10.00;;;;;;;-4.69;54.96;103564.63;105860;1252;61142;-52
2023/02/08 09:06:45;;;;;;;27.10;8.50;;;;;;;-4.73;55.11;103564.84;105498;1256;74425;-52
2023/02/08 09:09:14;;;;;;;17.90;6.90;;;;;;;-4.73;55.25;103562.77;105415;1257;70359;-53
2023/02/08 09:11:42;;;;;;;17.00;7.40;;;;;;;-4.72;55.25;103562.66;105814;1254;73882;-53
2023/02/08 09:14:10;;;;;;;19.10;8.30;;;;;;;-4.71;55.23;103561.65;105410;1253;61542;-52
2023/02/08 09:16:40;;;;;;;24.60;11.10;;;;;;;-4.71;55.19;103558.06;105444;1253;61308;-52
2023/02/08 09:19:09;;;;;;;24.50;10.00;;;;;;;-4.70;55.48;103558.60;105787;1254;74729;-52
2023/02/08 09:21:37;;;;;;;23.20;10.00;;;;;;;-4.68;55.57;103559.52;107257;1254;71216;-53
2023/02/08 09:24:05;;;;;;;25.40;9.40;;;;;;;-4.63;55.61;103559.67;105229;1259;73325;-52
2023/02/08 09:26:34;;;;;;;17.80;6.50;;;;;;;-4.58;55.67;103554.17;105660;1254;61195;-52
2023/02/08 09:29:03;;;;;;;25.00;9.30;;;;;;;-4.53;55.69;103550.23;105633;1254;61421;-52
2023/02/08 09:31:36;;;;;;;21.70;9.30;;;;;;;-4.47;55.69;103548.39;105803;1256;74778;-52
2023/02/08 09:46:10;;;;;;;24.60;10.90;;;;;;;-3.91;54.80;103539.15;105481;1263;603497;-52
2023/02/08 09:48:38;;;;;;;19.70;10.00;;;;;;;-3.42;53.58;103533.80;106795;1250;397201;-52
2023/02/08 09:51:10;;;;;;;23.60;11.50;;;;;;;-3.43;53.47;103528.63;111076;1244;61197;-52
2023/02/08 09:53:40;;;;;;;18.60;10.70;;;;;;;-3.44;53.53;103522.75;111131;1243;73427;-53
2023/02/08 09:56:10;;;;;;;21.40;11.10;;;;;;;-3.41;53.48;103515.81;108954;1247;71328;-53
2023/02/08 09:58:43;;;;;;;24.90;9.70;;;;;;;-3.39;53.30;103513.29;107101;1243;73516;-52
2023/02/08 10:01:27;;;;;;;20.80;9.30;;;;;;;-3.37;53.22;103510.24;107365;1243;61043;-53
2023/02/08 10:03:58;;;;;;;23.20;10.70;;;;;;;-3.33;53.41;103507.42;107395;1247;59661;-52
2023/02/08 10:06:25;;;;;;;25.20;9.60;;;;;;;-3.32;53.06;103500.95;107478;1242;71989;-52
2023/02/08 10:08:54;;;;;;;25.10;10.90;;;;;;;-3.29;53.31;103499.48;107638;1240;71031;-52
2023/02/08 10:11:29;;;;;;;25.30;11.80;;;;;;;-3.26;53.30;103501.28;107358;1245;73497;-53
2023/02/08 10:14:16;;;;;;;18.90;9.40;;;;;;;-3.23;53.33;103496.41;107453;1241;61007;-53
2023/02/08 10:16:55;;;;;;;20.70;8.80;;;;;;;-3.16;53.43;103492.62;107379;1240;60224;-52
2023/02/08 10:19:54;;;;;;;27.10;10.30;;;;;;;-3.08;53.49;103493.86;107403;1244;73615;-52
2023/02/08 10:22:30;;;;;;;20.60;9.10;;;;;;;-2.95;53.57;103493.36;107446;1243;71079;-54
2023/02/08 10:25:30;;;;;;;19.50;8.50;;;;;;;-2.81;53.24;103488.21;107439;1245;73567;-53
2023/02/08 10:28:17;;;;;;;21.90;7.80;;;;;;;-2.69;53.27;103493.68;107194;1251;59821;-53
2023/02/08 10:30:55;;;;;;;14.40;5.90;;;;;;;-2.57;53.25;103492.25;107516;1240;61132;-54
2023/02/08 10:33:33;;;;;;;16.20;8.10;;;;;;;-2.46;52.19;103492.19;107624;1244;73887;-53
2023/02/08 10:36:11;;;;;;;14.30;6.50;;;;;;;-2.37;52.10;103492.39;107357;1240;71426;-53
2023/02/08 10:38:38;;;;;;;22.50;11.50;;;;;;;-2.31;51.79;103490.29;107366;1246;73818;-53
2023/02/08 10:41:16;;;;;;;21.60;8.40;;;;;;;-2.26;51.42;103488.70;107547;1240;60931;-54
2023/02/08 10:43:59;;;;;;;19.00;8.20;;;;;;;-2.21;51.61;103495.50;107488;1244;60955;-54
2023/02/08 10:46:41;;;;;;;17.10;8.50;;;;;;;-2.16;51.60;103495.46;107590;1246;72732;-55
2023/02/08 10:49:19;;;;;;;21.80;9.50;;;;;;;-2.08;51.43;103497.53;107382;1240;71250;-55
2023/02/08 10:51:46;;;;;;;18.40;10.10;;;;;;;-1.99;51.21;103498.25;107711;1244;73666;-55
2023/02/08 10:54:14;;;;;;;17.20;8.50;;;;;;;-1.91;50.92;103501.18;107450;1240;61206;-53
2023/02/08 10:56:56;;;;;;;26.30;11.30;;;;;;;-1.85;50.37;103497.89;107416;1244;61098;-53
2023/02/08 10:59:26;;;;;;;19.80;9.50;;;;;;;-1.80;50.48;103494.35;107577;1244;73953;-53
2023/02/08 11:01:53;;;;;;;15.00;8.20;;;;;;;-1.74;50.60;103493.98;107735;1246;70175;-55
2023/02/08 11:04:20;;;;;;;22.20;10.60;;;;;;;-1.67;50.78;103493.44;107455;1247;73393;-54
2023/02/08 11:06:49;;;;;;;11.10;6.60;;;;;;;-1.56;50.70;103494.70;108236;1241;60981;-55
2023/02/08 11:09:20;;;;;;;18.60;9.70;;;;;;;-1.48;50.24;103489.86;107572;1246;61454;-54
2023/02/08 11:11:51;;;;;;;9.40;4.60;;;;;;;-1.39;50.17;103491.59;107575;1244;73733;-54
2023/02/08 11:14:25;;;;;;;13.00;6.60;;;;;;;-1.27;49.80;103490.96;107612;1245;69838;-54
2023/02/08 11:17:04;;;;;;;11.00;5.40;;;;;;;-1.19;48.80;103491.80;107596;1244;73550;-54
2023/02/08 11:19:41;;;;;;;9.00;4.70;;;;;;;-1.20;48.95;103492.65;107437;1241;61067;-54
2023/02/08 11:22:14;;;;;;;13.50;4.40;;;;;;;-1.13;48.88;103489.50;107442;1244;61619;-54
2023/02/08 11:24:42;;;;;;;10.60;4.20;;;;;;;-1.05;48.81;103487.06;107493;1246;73816;-54
2023/02/08 11:27:17;;;;;;;14.10;4.60;;;;;;;-0.99;48.46;103486.33;107604;1246;70204;-54
2023/02/08 11:29:44;;;;;;;14.00;5.90;;;;;;;-0.91;48.16;103489.90;107536;1244;73526;-54
2023/02/08 11:32:16;;;;;;;13.70;6.20;;;;;;;-0.86;48.30;103489.98;107492;1244;60439;-54
2023/02/08 11:34:43;;;;;;;13.00;5.50;;;;;;;-0.78;48.25;103489.95;107402;1245;61434;-54
2023/02/08 11:37:16;;;;;;;12.80;5.80;;;;;;;-0.72;47.95;103491.63;107402;1246;73670;-54
2023/02/08 11:40:04;;;;;;;10.30;5.00;;;;;;;-0.71;47.67;103495.60;107544;1245;69917;-54
2023/02/08 11:42:35;;;;;;;13.00;5.20;;;;;;;-0.70;47.97;103500.09;107990;1244;71752;-56